Terminal Aerodrome Forecast
Issued by NWS

Home | Current Version | Previous Version | Text Only | Print | Product List | Glossary On
Versions: 1 2 3 4 5 6 7 8 9 10 11 12 13 14 15 16 17 18 19
000
FTUS42 KTBW 201700
TAFLAL
TAF
KLAL 201740Z 2018/2118 34005KT P6SM VCSH SCT030 BKN250
      TEMPO 2018/2020 BKN030
     FM202000 29005KT P6SM VCSH SCT030 BKN250
     FM210100 VRB03KT P6SM SCT020 BKN250
     FM210800 VRB03KT P6SM SCT010 BKN250
     FM211500 VRB04KT P6SM SCT025 BKN250=

USA.gov is the U.S. government's official web portal to all federal, state and local government web resources and services.